createdAt,value
2018-06-27T00:00:18.514Z,85.42
2018-06-27T00:01:18.531Z,85.14
2018-06-27T00:03:11.482Z,85.52
2018-06-27T00:04:11.485Z,85.52
2018-06-27T00:06:04.426Z,85.24
2018-06-27T00:07:04.439Z,85.52
2018-06-27T00:08:57.905Z,85.24
2018-06-27T00:09:57.906Z,85.33
2018-06-27T00:11:52.394Z,84.85
2018-06-27T00:12:52.397Z,84.85
2018-06-27T00:14:45.327Z,84.85
2018-06-27T00:15:45.352Z,85.33
2018-06-27T00:17:38.301Z,85.52
2018-06-27T00:18:38.304Z,84.85
2018-06-27T00:20:31.261Z,84.56
2018-06-27T00:21:31.258Z,84.85
2018-06-27T00:23:24.722Z,84.66
2018-06-27T00:24:24.725Z,84.56
2018-06-27T00:26:17.664Z,84.85
2018-06-27T00:27:17.677Z,85.05
2018-06-27T00:29:10.629Z,85.14
2018-06-27T00:30:10.632Z,84.85
2018-06-27T00:32:03.584Z,84.85
2018-06-27T00:33:03.589Z,84.66
2018-06-27T00:34:56.518Z,85.05
2018-06-27T00:35:56.540Z,84.81
2018-06-27T00:37:49.490Z,84.62
2018-06-27T00:38:49.492Z,84.66
2018-06-27T00:40:42.433Z,85.00
2018-06-27T00:41:42.448Z,85.19
2018-06-27T00:43:35.402Z,84.72
2018-06-27T00:44:35.403Z,84.62
2018-06-27T00:46:28.311Z,84.52
2018-06-27T00:47:28.333Z,85.00
2018-06-27T00:49:21.308Z,84.91
2018-06-27T00:50:21.310Z,84.62
2018-06-27T00:52:14.251Z,84.91
2018-06-27T00:53:14.266Z,83.95
2018-06-27T00:55:07.215Z,83.95
2018-06-27T00:56:07.217Z,84.05
2018-06-27T00:58:00.169Z,83.95
2018-06-27T00:59:00.173Z,84.91
2018-06-27T01:00:53.103Z,85.29
2018-06-27T01:01:53.127Z,84.91
2018-06-27T01:03:46.077Z,84.62
2018-06-27T01:04:46.079Z,85.58
2018-06-27T01:06:39.525Z,85.29
2018-06-27T01:07:39.546Z,85.29
2018-06-27T01:09:32.499Z,84.91
2018-06-27T01:10:32.539Z,85.29
2018-06-27T01:12:25.439Z,84.33
2018-06-27T01:13:25.455Z,84.23
2018-06-27T01:15:18.406Z,84.91
2018-06-27T01:16:18.409Z,84.67
2018-06-27T01:18:11.359Z,85.25
2018-06-27T01:19:11.361Z,84.77
2018-06-27T01:21:04.314Z,85.44
2018-06-27T01:22:04.321Z,84.67
2018-06-27T01:23:57.269Z,84.77
2018-06-27T01:24:57.272Z,84.67
2018-06-27T01:26:50.213Z,84.77
2018-06-27T01:27:50.224Z,85.05
2018-06-27T01:29:43.177Z,84.77
2018-06-27T01:30:43.181Z,85.25
2018-06-27T01:32:36.117Z,84.96
2018-06-27T01:33:36.133Z,85.15
2018-06-27T01:35:29.083Z,85.05
2018-06-27T01:36:29.087Z,85.25
2018-06-27T01:38:22.025Z,85.25
2018-06-27T01:39:22.041Z,84.86
2018-06-27T01:41:14.993Z,85.53
2018-06-27T01:42:14.994Z,85.05
2018-06-27T01:44:07.954Z,85.25
2018-06-27T01:45:07.951Z,85.34
2018-06-27T01:47:00.888Z,85.53
2018-06-27T01:48:00.909Z,85.44
2018-06-27T01:49:53.857Z,85.63
2018-06-27T01:50:53.859Z,85.25
2018-06-27T01:52:46.799Z,85.44
2018-06-27T01:53:46.813Z,85.34
2018-06-27T01:55:39.764Z,85.34
2018-06-27T01:56:39.767Z,85.15
2018-06-27T01:58:32.699Z,85.44
2018-06-27T01:59:32.721Z,85.53
2018-06-27T02:01:25.676Z,85.25
2018-06-27T02:02:25.675Z,85.44
2018-06-27T02:04:18.613Z,85.34
2018-06-27T02:05:18.629Z,85.34
2018-06-27T02:07:12.094Z,85.53
2018-06-27T02:08:12.095Z,85.30
2018-06-27T02:10:05.046Z,85.68
2018-06-27T02:11:05.049Z,85.25
2018-06-27T02:12:57.987Z,85.53
2018-06-27T02:13:58.002Z,85.63
2018-06-27T02:15:50.956Z,85.15
2018-06-27T02:16:50.957Z,85.21
2018-06-27T02:18:43.896Z,85.11
2018-06-27T02:19:43.915Z,85.30
2018-06-27T02:21:38.400Z,85.58
2018-06-27T02:22:38.403Z,85.58
2018-06-27T02:24:31.333Z,85.21
2018-06-27T02:25:31.361Z,85.21
2018-06-27T02:27:24.837Z,85.01
2018-06-27T02:28:24.825Z,85.21
2018-06-27T02:30:17.772Z,85.49
2018-06-27T02:31:17.774Z,85.39
2018-06-27T02:33:10.726Z,85.77
2018-06-27T02:34:10.729Z,85.68
2018-06-27T02:36:03.681Z,85.58
2018-06-27T02:37:03.685Z,85.49
2018-06-27T02:38:56.621Z,85.58
2018-06-27T02:39:56.637Z,85.58
2018-06-27T02:41:50.101Z,85.58
2018-06-27T02:42:50.104Z,85.58
2018-06-27T02:44:43.041Z,85.49
2018-06-27T02:45:43.057Z,85.97
2018-06-27T02:47:36.009Z,86.06
2018-06-27T02:48:36.011Z,86.06
2018-06-27T02:50:28.949Z,86.25
2018-06-27T02:51:28.964Z,85.77
2018-06-27T02:53:21.926Z,85.21
2018-06-27T02:54:21.929Z,85.58
2018-06-27T02:56:14.872Z,85.49
2018-06-27T02:57:14.874Z,85.49
2018-06-27T02:59:07.814Z,85.68
2018-06-27T03:00:07.828Z,85.49
2018-06-27T03:02:00.781Z,85.49
2018-06-27T03:03:00.785Z,85.58
2018-06-27T03:04:54.227Z,85.39
2018-06-27T03:05:54.249Z,85.58
2018-06-27T03:07:47.715Z,85.68
2018-06-27T03:08:47.714Z,85.30
2018-06-27T03:10:48.123Z,85.01
2018-06-27T03:11:48.147Z,85.39
2018-06-27T03:13:41.094Z,85.39
2018-06-27T03:14:41.096Z,85.58
2018-06-27T03:16:34.052Z,85.58
2018-06-27T03:17:34.054Z,85.49
2018-06-27T03:19:26.989Z,85.39
2018-06-27T03:20:27.063Z,85.30
2018-06-27T03:22:20.473Z,85.21
2018-06-27T03:23:20.472Z,85.49
2018-06-27T03:25:13.405Z,85.45
2018-06-27T03:26:13.427Z,85.49
2018-06-27T03:28:06.386Z,84.97
2018-06-27T03:29:06.381Z,85.77
2018-06-27T03:30:59.320Z,85.58
2018-06-27T03:31:59.335Z,85.68
2018-06-27T03:33:52.291Z,85.77
2018-06-27T03:34:52.288Z,85.49
2018-06-27T03:36:45.243Z,85.49
2018-06-27T03:37:45.243Z,85.30
2018-06-27T03:39:38.181Z,85.49
2018-06-27T03:40:38.197Z,85.39
2018-06-27T03:42:32.692Z,85.68
2018-06-27T03:43:32.690Z,85.58
2018-06-27T03:45:25.620Z,85.01
2018-06-27T03:46:25.645Z,85.39
2018-06-27T03:48:18.603Z,85.15
2018-06-27T03:49:18.596Z,85.05
2018-06-27T03:51:11.534Z,84.86
2018-06-27T03:52:11.550Z,84.96
2018-06-27T03:54:04.502Z,84.20
2018-06-27T03:55:04.503Z,84.23
2018-06-27T03:56:57.446Z,84.62
2018-06-27T03:57:57.460Z,83.57
2018-06-27T03:59:50.411Z,83.61
2018-06-27T04:00:50.413Z,83.42
2018-06-27T04:02:43.367Z,82.08
2018-06-27T04:03:43.367Z,81.45
2018-06-27T04:05:36.300Z,80.69
2018-06-27T04:06:36.321Z,80.40
2018-06-27T04:08:29.273Z,79.83
2018-06-27T04:09:29.276Z,79.25
2018-06-27T04:11:22.207Z,78.81
2018-06-27T04:12:22.231Z,78.81
2018-06-27T04:14:15.694Z,77.99
2018-06-27T04:15:15.700Z,77.13
2018-06-27T04:17:08.630Z,76.89
2018-06-27T04:18:08.653Z,75.93
2018-06-27T04:20:01.616Z,74.43
2018-06-27T04:21:01.609Z,73.57
2018-06-27T04:22:54.567Z,71.88
2018-06-27T04:23:54.562Z,71.34
2018-06-27T04:25:47.492Z,70.42
2018-06-27T04:26:47.517Z,69.74
2018-06-27T04:28:40.977Z,68.82
2018-06-27T04:29:40.983Z,68.47
2018-06-27T04:31:33.915Z,66.93
2018-06-27T04:32:33.942Z,67.03
2018-06-27T04:34:26.886Z,65.81
2018-06-27T04:35:26.917Z,65.91
2018-06-27T04:37:19.827Z,65.08
2018-06-27T04:38:19.849Z,64.12
2018-06-27T04:40:12.798Z,63.38
2018-06-27T04:41:12.804Z,63.38
2018-06-27T04:43:05.766Z,61.94
2018-06-27T04:44:05.757Z,62.03
2018-06-27T04:45:58.706Z,62.16
2018-06-27T04:46:58.712Z,62.26
2018-06-27T04:48:51.659Z,61.71
2018-06-27T04:49:51.665Z,61.32
2018-06-27T04:51:44.595Z,60.10
2018-06-27T04:52:44.621Z,60.30
2018-06-27T04:54:37.567Z,60.03
2018-06-27T04:55:37.575Z,59.78
2018-06-27T04:57:30.507Z,59.58
2018-06-27T04:58:30.529Z,58.36
2018-06-27T05:00:23.477Z,58.36
2018-06-27T05:01:23.483Z,58.75
2018-06-27T05:03:16.515Z,58.12
2018-06-27T05:04:16.542Z,56.00
2018-06-27T05:06:09.590Z,55.74
2018-06-27T05:07:09.600Z,55.29
2018-06-27T05:09:02.655Z,54.99
2018-06-27T05:10:02.664Z,54.15
2018-06-27T05:11:55.685Z,53.86
2018-06-27T05:12:55.717Z,53.41
2018-06-27T05:14:48.761Z,53.21
2018-06-27T05:15:48.769Z,52.66
2018-06-27T05:17:41.797Z,52.17
2018-06-27T05:18:41.827Z,52.17
2018-06-27T05:20:34.876Z,51.42
2018-06-27T05:21:34.887Z,51.42
2018-06-27T05:23:27.914Z,50.31
2018-06-27T05:24:27.945Z,50.12
2018-06-27T05:26:21.499Z,49.07
2018-06-27T05:27:21.578Z,48.37
2018-06-27T05:29:14.536Z,49.51
2018-06-27T05:30:14.567Z,49.61
2018-06-27T05:32:09.050Z,50.09
2018-06-27T05:33:09.060Z,50.26
2018-06-27T05:35:02.109Z,51.10
2018-06-27T05:36:02.119Z,52.24
2018-06-27T05:37:55.141Z,53.59
2018-06-27T05:38:55.174Z,53.69
2018-06-27T05:40:48.216Z,53.69
2018-06-27T05:41:48.228Z,53.79
2018-06-27T05:43:41.253Z,53.31
2018-06-27T05:44:41.285Z,53.21
2018-06-27T05:46:34.331Z,53.99
2018-06-27T05:47:34.342Z,54.95
2018-06-27T05:49:27.368Z,53.50
2018-06-27T05:50:27.400Z,53.79
2018-06-27T05:52:20.444Z,53.02
2018-06-27T05:53:20.458Z,53.69
2018-06-27T05:55:13.499Z,54.37
2018-06-27T05:56:13.513Z,53.99
2018-06-27T05:58:06.577Z,53.23
2018-06-27T05:59:06.568Z,53.65
2018-06-27T06:00:59.613Z,52.39
2018-06-27T06:01:59.625Z,52.46
2018-06-27T06:03:52.653Z,52.56
2018-06-27T06:04:52.685Z,53.50
2018-06-27T06:06:45.726Z,54.37
2018-06-27T06:07:45.740Z,54.25
2018-06-27T06:09:38.765Z,55.15
2018-06-27T06:10:38.796Z,55.15
2018-06-27T06:12:31.840Z,54.57
2018-06-27T06:13:31.854Z,55.70
2018-06-27T06:15:24.896Z,55.70
2018-06-27T06:16:24.908Z,55.21
2018-06-27T06:18:17.934Z,55.05
2018-06-27T06:19:17.966Z,55.34
2018-06-27T06:21:11.008Z,55.07
2018-06-27T06:22:11.022Z,54.21
2018-06-27T06:24:04.046Z,53.55
2018-06-27T06:25:04.080Z,53.26
2018-06-27T06:26:57.124Z,52.68
2018-06-27T06:27:57.138Z,52.97
2018-06-27T06:29:50.162Z,52.75
2018-06-27T06:30:50.195Z,53.26
2018-06-27T06:32:43.236Z,52.75
2018-06-27T06:33:43.250Z,52.63
2018-06-27T06:35:36.305Z,54.66
2018-06-27T06:36:36.309Z,53.89
2018-06-27T06:38:29.331Z,54.27
2018-06-27T06:39:29.365Z,54.17
2018-06-27T06:41:22.406Z,54.49
2018-06-27T06:42:22.420Z,53.72
2018-06-27T06:44:15.446Z,53.91
2018-06-27T06:45:15.478Z,54.49
2018-06-27T06:47:09.441Z,54.08
2018-06-27T06:48:09.456Z,54.11
2018-06-27T06:50:02.480Z,54.11
2018-06-27T06:51:02.513Z,55.76
2018-06-27T06:52:55.557Z,54.62
2018-06-27T06:53:55.571Z,54.03
2018-06-27T06:55:48.592Z,53.67
2018-06-27T06:56:48.624Z,53.39
2018-06-27T06:58:41.675Z,53.49
2018-06-27T06:59:41.684Z,53.49
2018-06-27T07:01:34.728Z,53.09
2018-06-27T07:02:34.743Z,53.09
2018-06-27T07:04:28.282Z,53.65
2018-06-27T07:05:28.313Z,54.62
2018-06-27T07:07:21.351Z,55.92
2018-06-27T07:08:21.366Z,56.30
2018-06-27T07:10:14.900Z,56.70
2018-06-27T07:11:15.116Z,57.08
2018-06-27T07:13:07.975Z,57.82
2018-06-27T07:14:07.991Z,58.31
2018-06-27T07:16:01.013Z,58.21
2018-06-27T07:17:01.046Z,57.73
2018-06-27T07:18:54.088Z,58.86
2018-06-27T07:19:54.104Z,59.34
2018-06-27T07:21:54.624Z,59.80
2018-06-27T07:22:54.638Z,59.63
2018-06-27T07:24:47.658Z,59.83
2018-06-27T07:25:47.695Z,59.34
2018-06-27T07:27:40.734Z,58.50
2018-06-27T07:28:40.870Z,58.40
2018-06-27T07:30:34.288Z,58.98
2018-06-27T07:31:34.317Z,58.31
2018-06-27T07:33:27.273Z,59.56
2018-06-27T07:34:27.285Z,60.50
2018-06-27T07:36:20.294Z,60.31
2018-06-27T07:37:20.328Z,60.69
2018-06-27T07:39:13.371Z,60.47
2018-06-27T07:40:13.384Z,60.41
2018-06-27T07:42:06.426Z,60.47
2018-06-27T07:43:06.437Z,60.76
2018-06-27T07:44:59.873Z,61.44
2018-06-27T07:45:59.905Z,61.25
2018-06-27T07:47:52.945Z,60.76
2018-06-27T07:48:52.956Z,61.44
2018-06-27T07:50:45.985Z,61.44
2018-06-27T07:51:46.013Z,61.44
2018-06-27T07:53:39.061Z,62.02
2018-06-27T07:54:39.073Z,62.21
2018-06-27T07:56:32.097Z,62.02
2018-06-27T07:57:32.132Z,62.40
2018-06-27T07:59:25.195Z,62.31
2018-06-27T08:00:25.184Z,62.21
2018-06-27T08:02:18.214Z,63.18
2018-06-27T08:03:18.238Z,63.56
2018-06-27T08:05:11.285Z,63.08
2018-06-27T08:06:11.294Z,63.37
2018-06-27T08:08:04.359Z,62.02
2018-06-27T08:09:04.351Z,62.21
2018-06-27T08:10:57.278Z,62.02
2018-06-27T08:11:57.305Z,62.60
2018-06-27T08:13:50.353Z,62.79
2018-06-27T08:14:50.364Z,62.92
2018-06-27T08:16:43.800Z,62.24
2018-06-27T08:17:43.850Z,62.02
2018-06-27T08:19:36.877Z,63.11
2018-06-27T08:20:36.887Z,62.44
2018-06-27T08:22:30.322Z,62.53
2018-06-27T08:23:30.349Z,62.05
2018-06-27T08:25:23.397Z,62.24
2018-06-27T08:26:23.581Z,61.66
2018-06-27T08:28:16.435Z,61.95
2018-06-27T08:29:16.463Z,62.73
2018-06-27T08:31:09.512Z,63.50
2018-06-27T08:32:09.522Z,62.73
2018-06-27T08:34:02.976Z,63.11
2018-06-27T08:35:02.983Z,62.24
2018-06-27T08:36:56.015Z,63.31
2018-06-27T08:37:56.044Z,63.50
2018-06-27T08:39:49.092Z,63.66
2018-06-27T08:40:49.102Z,63.18
2018-06-27T08:42:42.128Z,63.66
2018-06-27T08:43:42.196Z,63.85
2018-06-27T08:45:35.203Z,64.34
2018-06-27T08:46:35.212Z,63.98
2018-06-27T08:48:28.241Z,64.08
2018-06-27T08:49:28.285Z,63.69
2018-06-27T08:51:21.383Z,63.69
2018-06-27T08:52:21.325Z,63.31
2018-06-27T08:54:14.369Z,64.24
2018-06-27T08:55:14.381Z,64.37
2018-06-27T08:57:07.409Z,64.05
2018-06-27T08:58:07.436Z,64.24
2018-06-27T09:00:00.483Z,65.82
2018-06-27T09:01:00.570Z,65.43
2018-06-27T09:02:53.453Z,64.66
2018-06-27T09:03:53.480Z,64.66
2018-06-27T09:05:46.500Z,64.27
2018-06-27T09:06:46.511Z,63.82
2018-06-27T09:08:39.533Z,62.37
2018-06-27T09:09:39.562Z,62.37
2018-06-27T09:11:32.609Z,64.40
2018-06-27T09:12:32.624Z,63.21
2018-06-27T09:14:25.666Z,63.53
2018-06-27T09:15:25.678Z,63.43
2018-06-27T09:17:18.704Z,62.27
2018-06-27T09:18:18.734Z,62.37
2018-06-27T09:20:11.779Z,62.66
2018-06-27T09:21:11.789Z,61.40
2018-06-27T09:23:04.817Z,61.69
2018-06-27T09:24:04.845Z,61.43
2018-06-27T09:25:57.893Z,62.66
2018-06-27T09:26:57.903Z,62.66
2018-06-27T09:28:50.829Z,63.53
2018-06-27T09:29:50.858Z,63.92
2018-06-27T09:31:43.903Z,63.73
2018-06-27T09:32:43.916Z,63.56
2018-06-27T09:34:37.350Z,62.30
2018-06-27T09:35:37.376Z,61.72
2018-06-27T09:37:30.430Z,62.59
2018-06-27T09:38:30.436Z,60.75
2018-06-27T09:40:23.481Z,59.50
2018-06-27T09:41:23.491Z,60.27
2018-06-27T09:43:16.520Z,60.85
2018-06-27T09:44:16.549Z,60.85
2018-06-27T09:46:09.594Z,61.24
2018-06-27T09:47:09.605Z,60.95
2018-06-27T09:49:02.531Z,59.91
2018-06-27T09:50:02.562Z,59.91
2018-06-27T09:51:55.508Z,60.50
2018-06-27T09:52:55.515Z,60.88
2018-06-27T09:54:49.440Z,60.59
2018-06-27T09:55:49.473Z,59.53
2018-06-27T09:57:42.418Z,59.72
2018-06-27T09:58:42.427Z,59.89
2018-06-27T10:00:35.381Z,59.82
2018-06-27T10:01:35.384Z,59.72
2018-06-27T10:03:28.309Z,60.30
2018-06-27T10:04:28.336Z,59.43
2018-06-27T10:06:21.290Z,59.72
2018-06-27T10:07:21.289Z,59.53
2018-06-27T10:09:14.256Z,56.82
2018-06-27T10:10:14.244Z,56.62
2018-06-27T10:12:07.194Z,57.50
2018-06-27T10:13:07.199Z,58.27
2018-06-27T10:15:00.125Z,55.66
2018-06-27T10:16:00.150Z,57.18
2018-06-27T10:17:54.588Z,55.53
2018-06-27T10:18:54.597Z,56.30
2018-06-27T10:20:47.540Z,57.11
2018-06-27T10:21:47.552Z,56.24
2018-06-27T10:23:40.476Z,56.24
2018-06-27T10:24:40.538Z,56.43
2018-06-27T10:26:33.447Z,56.43
2018-06-27T10:27:33.458Z,56.34
2018-06-27T10:29:26.392Z,51.98
2018-06-27T10:30:26.420Z,51.01
2018-06-27T10:32:19.362Z,52.17
2018-06-27T10:33:19.373Z,50.04
2018-06-27T10:35:12.297Z,51.30
2018-06-27T10:36:12.338Z,50.40
2018-06-27T10:38:05.306Z,47.62
2018-06-27T10:39:05.277Z,48.66
2018-06-27T10:40:58.228Z,50.02
2018-06-27T10:41:58.230Z,49.82
2018-06-27T10:43:51.153Z,48.66
2018-06-27T10:44:51.182Z,49.44
2018-06-27T10:46:44.124Z,50.21
2018-06-27T10:47:44.136Z,49.05
2018-06-27T10:49:37.064Z,49.85
2018-06-27T10:50:37.093Z,49.95
2018-06-27T10:52:30.043Z,46.94
2018-06-27T10:53:30.049Z,47.14
2018-06-27T10:55:22.972Z,47.50
2018-06-27T10:56:22.998Z,48.47
2018-06-27T10:58:15.943Z,47.72
2018-06-27T10:59:15.954Z,48.01
2018-06-27T11:01:08.891Z,48.59
2018-06-27T11:02:08.906Z,46.66
2018-06-27T11:04:01.854Z,47.04
2018-06-27T11:05:01.861Z,47.43
2018-06-27T11:06:54.803Z,47.24
2018-06-27T11:07:54.813Z,45.98
2018-06-27T11:09:47.739Z,46.15
2018-06-27T11:10:47.765Z,46.94
2018-06-27T11:12:40.714Z,46.08
2018-06-27T11:13:40.719Z,46.17
2018-06-27T11:15:33.640Z,45.30
2018-06-27T11:16:33.669Z,44.72
2018-06-27T11:18:26.612Z,44.53
2018-06-27T11:19:26.621Z,44.43
2018-06-27T11:21:19.547Z,42.90
2018-06-27T11:22:19.575Z,42.32
2018-06-27T11:24:12.524Z,41.83
2018-06-27T11:25:12.529Z,41.74
2018-06-27T11:27:05.969Z,41.91
2018-06-27T11:28:05.997Z,41.64
2018-06-27T11:29:59.436Z,40.67
2018-06-27T11:30:59.443Z,40.38
2018-06-27T11:32:52.495Z,41.45
2018-06-27T11:33:52.395Z,40.94
2018-06-27T11:35:45.322Z,42.22
2018-06-27T11:36:45.351Z,41.83
2018-06-27T11:38:38.384Z,42.13
2018-06-27T11:39:38.304Z,41.35
2018-06-27T11:41:31.233Z,40.28
2018-06-27T11:42:31.263Z,40.28
2018-06-27T11:44:24.291Z,40.77
2018-06-27T11:45:24.218Z,41.35
2018-06-27T11:47:17.142Z,40.48
2018-06-27T11:48:17.168Z,40.38
2018-06-27T11:50:10.119Z,42.13
2018-06-27T11:51:10.126Z,41.45
2018-06-27T11:53:03.075Z,41.55
2018-06-27T11:54:03.083Z,40.48
2018-06-27T11:55:56.005Z,40.96
2018-06-27T11:56:56.033Z,40.38
2018-06-27T11:58:48.982Z,40.48
2018-06-27T11:59:48.992Z,40.86
2018-06-27T12:01:41.918Z,42.13
2018-06-27T12:02:41.948Z,42.22
2018-06-27T12:04:34.886Z,41.06
2018-06-27T12:05:34.898Z,41.06
2018-06-27T12:07:27.824Z,41.74
2018-06-27T12:08:27.864Z,41.93
2018-06-27T12:10:20.796Z,41.76
2018-06-27T12:11:20.804Z,41.47
2018-06-27T12:13:13.732Z,39.24
2018-06-27T12:14:13.759Z,39.14
2018-06-27T12:16:06.710Z,39.72
2018-06-27T12:17:06.719Z,40.31
2018-06-27T12:18:59.669Z,38.85
2018-06-27T12:19:59.673Z,38.76
2018-06-27T12:21:53.096Z,39.14
2018-06-27T12:22:53.126Z,39.62
2018-06-27T12:24:46.075Z,39.16
2018-06-27T12:25:46.088Z,39.26
2018-06-27T12:27:39.009Z,38.00
2018-06-27T12:28:39.039Z,37.41
2018-06-27T12:30:31.990Z,37.69
2018-06-27T12:31:31.994Z,37.59
2018-06-27T12:33:24.922Z,38.27
2018-06-27T12:34:24.953Z,38.66
2018-06-27T12:36:17.896Z,39.53
2018-06-27T12:37:17.906Z,39.34
2018-06-27T12:39:10.856Z,39.62
2018-06-27T12:40:10.863Z,39.53
2018-06-27T12:42:03.787Z,40.61
2018-06-27T12:43:03.821Z,40.03
2018-06-27T12:44:56.765Z,39.06
2018-06-27T12:45:56.771Z,39.16
2018-06-27T12:47:51.203Z,39.06
2018-06-27T12:48:51.232Z,38.78
2018-06-27T12:50:44.178Z,38.02
2018-06-27T12:51:44.188Z,38.21
2018-06-27T12:53:37.143Z,38.02
2018-06-27T12:54:37.148Z,37.63
2018-06-27T12:56:30.090Z,37.43
2018-06-27T12:57:30.097Z,36.87
2018-06-27T12:59:23.026Z,36.77
2018-06-27T13:00:23.120Z,36.97
2018-06-27T13:02:16.007Z,36.48
2018-06-27T13:03:16.069Z,35.71
2018-06-27T13:05:08.971Z,36.48
2018-06-27T13:06:08.975Z,36.87
2018-06-27T13:08:01.900Z,37.43
2018-06-27T13:09:02.039Z,36.46
2018-06-27T13:10:55.374Z,36.68
2018-06-27T13:11:55.383Z,36.29
2018-06-27T13:13:48.311Z,36.68
2018-06-27T13:14:48.339Z,36.48
2018-06-27T13:16:41.289Z,36.30
2018-06-27T13:17:41.299Z,36.11
2018-06-27T13:19:35.230Z,37.28
2018-06-27T13:20:35.262Z,36.79
2018-06-27T13:22:28.212Z,35.82
2018-06-27T13:23:28.219Z,36.60
2018-06-27T13:25:21.173Z,37.66
2018-06-27T13:26:21.178Z,36.99
2018-06-27T13:28:14.107Z,36.60
2018-06-27T13:29:14.139Z,35.82
2018-06-27T13:31:07.089Z,37.76
2018-06-27T13:32:07.096Z,36.99
2018-06-27T13:34:00.029Z,35.90
2018-06-27T13:35:00.126Z,36.00
2018-06-27T13:36:53.003Z,36.46
2018-06-27T13:37:53.010Z,37.24
2018-06-27T13:39:45.936Z,37.45
2018-06-27T13:40:45.964Z,38.32
2018-06-27T13:42:38.910Z,37.45
2018-06-27T13:43:38.921Z,37.65
2018-06-27T13:45:31.849Z,37.84
2018-06-27T13:46:31.880Z,38.04
2018-06-27T13:48:24.833Z,38.06
2018-06-27T13:49:24.842Z,37.66
2018-06-27T13:51:17.793Z,36.60
2018-06-27T13:52:17.797Z,36.19
2018-06-27T13:54:10.727Z,36.97
2018-06-27T13:55:10.754Z,36.77
2018-06-27T13:57:03.710Z,37.28
2018-06-27T13:58:03.718Z,37.86
2018-06-27T13:59:56.658Z,36.30
2018-06-27T14:00:56.681Z,36.30
2018-06-27T14:02:49.632Z,36.48
2018-06-27T14:03:49.642Z,36.69
2018-06-27T14:05:42.568Z,37.18
2018-06-27T14:06:42.597Z,37.18
2018-06-27T14:08:35.540Z,36.71
2018-06-27T14:09:35.552Z,36.13
2018-06-27T14:11:28.482Z,35.74
2018-06-27T14:12:28.513Z,35.57
2018-06-27T14:14:21.953Z,34.59
2018-06-27T14:15:21.966Z,34.69
2018-06-27T14:17:15.403Z,35.19
2018-06-27T14:18:15.416Z,34.32
2018-06-27T14:20:08.343Z,32.84
2018-06-27T14:21:08.373Z,32.92
2018-06-27T14:23:01.324Z,32.55
2018-06-27T14:24:01.353Z,32.45
2018-06-27T14:25:54.262Z,31.48
2018-06-27T14:26:54.294Z,32.44
2018-06-27T14:28:47.256Z,33.02
2018-06-27T14:29:47.260Z,32.15
2018-06-27T14:31:40.682Z,33.12
2018-06-27T14:32:40.715Z,32.91
2018-06-27T14:34:33.657Z,33.70
2018-06-27T14:35:33.670Z,32.54
2018-06-27T14:37:26.614Z,33.31
2018-06-27T14:38:26.689Z,34.28
2018-06-27T14:40:19.600Z,33.31
2018-06-27T14:41:19.634Z,33.31
2018-06-27T14:43:12.673Z,32.44
2018-06-27T14:44:12.686Z,32.24
2018-06-27T14:46:05.714Z,32.64
2018-06-27T14:47:05.742Z,32.64
2018-06-27T14:48:58.787Z,32.15
2018-06-27T14:49:58.812Z,32.64
2018-06-27T14:51:51.828Z,32.54
2018-06-27T14:52:51.859Z,33.01
2018-06-27T14:54:44.899Z,32.32
2018-06-27T14:55:44.911Z,32.52
2018-06-27T14:57:37.940Z,32.82
2018-06-27T14:58:37.971Z,32.54
2018-06-27T15:00:31.013Z,32.71
2018-06-27T15:01:31.026Z,33.02
2018-06-27T15:03:24.073Z,34.58
2018-06-27T15:04:24.080Z,33.12
2018-06-27T15:06:17.108Z,32.92
2018-06-27T15:07:17.141Z,33.02
2018-06-27T15:09:15.101Z,32.84
2018-06-27T15:10:15.113Z,32.94
2018-06-27T15:12:08.138Z,32.26
2018-06-27T15:13:08.168Z,32.96
2018-06-27T15:15:01.215Z,32.28
2018-06-27T15:16:01.225Z,31.50
2018-06-27T15:17:54.250Z,32.55
2018-06-27T15:18:54.280Z,31.48
2018-06-27T15:20:47.326Z,32.24
2018-06-27T15:21:47.339Z,32.73
2018-06-27T15:23:40.606Z,32.65
2018-06-27T15:24:40.394Z,32.64
2018-06-27T15:26:33.420Z,32.34
2018-06-27T15:27:33.450Z,31.95
2018-06-27T15:29:36.401Z,32.24
2018-06-27T15:30:36.408Z,32.15
2018-06-27T15:32:29.338Z,32.15
2018-06-27T15:33:29.369Z,32.44
2018-06-27T15:35:22.337Z,32.64
2018-06-27T15:36:22.325Z,33.02
2018-06-27T15:38:15.247Z,32.82
2018-06-27T15:39:15.277Z,33.02
2018-06-27T15:41:08.221Z,32.24
2018-06-27T15:42:08.230Z,32.44
2018-06-27T15:44:01.205Z,31.57
2018-06-27T15:45:01.183Z,32.44
2018-06-27T15:46:54.109Z,32.15
2018-06-27T15:47:54.137Z,32.15
2018-06-27T15:49:47.081Z,32.73
2018-06-27T15:50:47.087Z,32.92
2018-06-27T15:52:40.015Z,33.02
2018-06-27T15:53:40.044Z,32.64
2018-06-27T15:55:32.988Z,31.08
2018-06-27T15:56:32.995Z,31.18
2018-06-27T15:58:25.921Z,32.07
2018-06-27T15:59:25.949Z,32.17
2018-06-27T16:01:18.894Z,31.58
2018-06-27T16:02:18.902Z,31.48
2018-06-27T16:04:11.827Z,31.66
2018-06-27T16:05:11.909Z,32.64
2018-06-27T16:07:04.803Z,32.64
2018-06-27T16:08:04.810Z,32.64
2018-06-27T16:09:57.763Z,32.24
2018-06-27T16:10:57.764Z,32.24
2018-06-27T16:12:50.692Z,31.58
2018-06-27T16:13:50.717Z,31.68
2018-06-27T16:15:43.665Z,31.58
2018-06-27T16:16:43.804Z,31.48
2018-06-27T16:18:36.598Z,31.38
2018-06-27T16:19:36.627Z,32.55
2018-06-27T16:21:29.573Z,31.48
2018-06-27T16:22:29.583Z,31.58
2018-06-27T16:24:22.507Z,32.26
2018-06-27T16:25:22.535Z,31.48
2018-06-27T16:27:15.481Z,31.68
2018-06-27T16:28:15.488Z,31.00
2018-06-27T16:30:08.433Z,31.00
2018-06-27T16:31:08.444Z,31.29
2018-06-27T16:33:01.388Z,31.08
2018-06-27T16:34:01.395Z,31.27
2018-06-27T16:35:54.349Z,31.55
2018-06-27T16:39:40.141Z,33.02
2018-06-27T16:40:40.146Z,33.31
2018-06-27T16:42:33.098Z,32.64
2018-06-27T16:43:33.241Z,32.94
2018-06-27T16:45:26.029Z,32.73
2018-06-27T16:46:26.134Z,32.82
2018-06-27T16:48:18.998Z,32.64
2018-06-27T16:49:19.005Z,33.41
2018-06-27T16:51:12.128Z,32.24
2018-06-27T16:52:11.998Z,32.64
2018-06-27T16:54:04.892Z,32.44
2018-06-27T16:55:04.907Z,32.64
2018-06-27T16:56:57.848Z,32.92
2018-06-27T16:57:57.878Z,33.41
2018-06-27T16:59:50.776Z,33.22
2018-06-27T17:00:50.848Z,33.41
2018-06-27T17:02:43.770Z,32.64
2018-06-27T17:03:43.755Z,32.91
2018-06-27T17:05:36.679Z,33.99
2018-06-27T17:06:36.706Z,33.41
2018-06-27T17:08:29.655Z,33.99
2018-06-27T17:09:29.657Z,34.38
2018-06-27T17:11:22.578Z,34.38
2018-06-27T17:12:22.643Z,33.70
2018-06-27T17:14:15.549Z,32.82
2018-06-27T17:15:15.559Z,33.31
2018-06-27T17:17:08.565Z,33.12
2018-06-27T17:18:08.629Z,33.81
2018-06-27T17:20:01.466Z,33.72
2018-06-27T17:21:01.550Z,34.50
2018-06-27T17:22:55.257Z,34.59
2018-06-27T17:23:55.366Z,33.80
2018-06-27T17:25:47.652Z,33.02
2018-06-27T17:26:47.681Z,33.02
2018-06-27T17:28:40.622Z,33.70
2018-06-27T17:29:40.633Z,34.19
2018-06-27T17:31:33.593Z,34.19
2018-06-27T17:32:33.593Z,34.95
2018-06-27T17:34:26.536Z,35.45
2018-06-27T17:35:26.543Z,35.14
2018-06-27T17:37:19.469Z,34.48
2018-06-27T17:38:19.497Z,35.05
2018-06-27T17:40:12.445Z,35.63
2018-06-27T17:41:12.448Z,35.63
2018-06-27T17:43:05.398Z,35.33
2018-06-27T17:44:05.397Z,35.63
2018-06-27T17:45:58.317Z,34.67
2018-06-27T17:46:58.344Z,35.25
2018-06-27T17:48:51.288Z,34.19
2018-06-27T17:49:51.297Z,34.58
2018-06-27T17:51:44.223Z,32.84
2018-06-27T17:52:44.252Z,32.96
2018-06-27T17:54:37.213Z,32.10
2018-06-27T17:55:37.208Z,31.43
2018-06-27T17:57:30.161Z,31.34
2018-06-27T17:58:30.160Z,31.14
2018-06-27T18:00:23.113Z,31.43
2018-06-27T18:01:23.120Z,31.63
2018-06-27T18:03:16.042Z,31.90
2018-06-27T18:04:16.074Z,31.71
2018-06-27T18:06:09.025Z,31.70
2018-06-27T18:07:09.034Z,32.28
2018-06-27T18:09:01.971Z,32.65
2018-06-27T18:10:01.983Z,33.14
2018-06-27T18:11:54.941Z,33.33
2018-06-27T18:12:55.029Z,33.34
2018-06-27T18:14:47.950Z,32.97
2018-06-27T18:15:47.927Z,32.97
2018-06-27T18:17:40.863Z,32.49
2018-06-27T18:18:40.878Z,33.07
2018-06-27T18:20:33.833Z,32.86
2018-06-27T18:21:33.845Z,32.96
2018-06-27T18:23:26.771Z,32.86
2018-06-27T18:24:26.798Z,33.34
2018-06-27T18:26:23.538Z,33.64
2018-06-27T18:27:23.589Z,33.83
2018-06-27T18:29:16.471Z,34.03
2018-06-27T18:30:16.500Z,34.40
2018-06-27T18:32:09.457Z,34.01
2018-06-27T18:33:09.494Z,34.42
2018-06-27T18:35:02.413Z,33.73
2018-06-27T18:36:02.425Z,33.64